Time;durP1;ratioP1;P1;durP2;ratioP2;P2;SDS_P1;SDS_P2;PMS_P1;PMS_P2;Temp;Humidity;BMP_temperature;BMP_pressure;BME280_temperature;BME280_humidity;BME280_pressure;Samples;Min_cycle;Max_cycle;Signal;HPM_P1;HPM_P2
2023/04/04 00:02:03;;;;;;;8.70;3.00;;;4.30;98.50;;;;;;4977458;28;20089;-90
2023/04/04 00:04:29;;;;;;;7.05;2.55;;;4.40;98.30;;;;;;4976913;28;20019;-88
2023/04/04 00:06:57;;;;;;;8.32;2.78;;;4.30;98.30;;;;;;4984763;28;20074;-88
2023/04/04 00:09:23;;;;;;;5.40;2.70;;;4.30;98.50;;;;;;4971132;28;20015;-89
2023/04/04 00:11:48;;;;;;;4.13;2.30;;;4.20;98.50;;;;;;4987544;28;20087;-88
2023/04/04 00:14:14;;;;;;;6.30;2.10;;;4.10;98.40;;;;;;4997470;28;20404;-88
2023/04/04 00:16:40;;;;;;;4.93;2.20;;;4.10;98.40;;;;;;4990534;28;20015;-90
2023/04/04 00:19:06;;;;;;;5.43;1.77;;;4.10;98.40;;;;;;4996301;28;20049;-89
2023/04/04 00:21:32;;;;;;;3.88;1.90;;;4.10;98.30;;;;;;4977401;28;20033;-88
2023/04/04 00:23:58;;;;;;;2.80;1.60;;;4.10;98.10;;;;;;4980292;28;20195;-85
2023/04/04 00:26:25;;;;;;;4.07;1.73;;;4.10;98.30;;;;;;4973357;28;20030;-85
2023/04/04 00:28:51;;;;;;;6.55;2.08;;;4.10;98.20;;;;;;4963367;28;20049;-88
2023/04/04 00:31:18;;;;;;;4.68;2.00;;;4.00;98.20;;;;;;4969333;28;20035;-89
2023/04/04 00:33:46;;;;;;;2.33;1.75;;;3.90;98.30;;;;;;4974307;28;20572;-91
2023/04/04 00:36:12;;;;;;;6.07;1.67;;;3.90;98.10;;;;;;4976429;28;20310;-88
2023/04/04 00:38:37;;;;;;;4.18;1.80;;;3.90;98.30;;;;;;4966537;28;20023;-91
2023/04/04 00:41:05;;;;;;;4.45;1.55;;;3.80;98.20;;;;;;4979180;28;20120;-89
2023/04/04 00:43:31;;;;;;;2.40;1.52;;;3.80;98.50;;;;;;4978705;28;20133;-89
2023/04/04 00:45:57;;;;;;;4.55;2.05;;;3.80;98.40;;;;;;4981005;28;20030;-88
2023/04/04 00:48:23;;;;;;;8.68;1.70;;;3.80;98.20;;;;;;4959030;28;20035;-89
2023/04/04 00:50:49;;;;;;;3.17;1.95;;;3.80;98.30;;;;;;4962561;28;20383;-91
2023/04/04 00:53:15;;;;;;;5.07;2.13;;;3.80;98.50;;;;;;4961306;28;20118;-91
2023/04/04 00:55:42;;;;;;;3.10;1.83;;;3.80;98.70;;;;;;4961242;28;20027;-89
2023/04/04 00:58:11;;;;;;;5.85;1.67;;;3.70;98.80;;;;;;4960071;28;20543;-89
2023/04/04 01:00:37;;;;;;;2.00;1.67;;;3.80;98.70;;;;;;4989245;28;21065;-91
2023/04/04 01:03:04;;;;;;;4.85;1.60;;;3.70;99.10;;;;;;4974209;28;20019;-88
2023/04/04 01:05:32;;;;;;;3.83;2.10;;;3.70;99.20;;;;;;4967790;28;20090;-88
2023/04/04 01:07:59;;;;;;;4.57;1.92;;;3.70;98.90;;;;;;4962917;28;20038;-90
2023/04/04 01:10:25;;;;;;;6.47;1.90;;;3.80;99.90;;;;;;4963181;28;20050;-89
2023/04/04 01:12:51;;;;;;;7.97;2.30;;;3.60;99.70;;;;;;4972396;28;20057;-90
2023/04/04 01:15:16;;;;;;;4.95;1.95;;;3.70;99.90;;;;;;4963712;28;20034;-90
2023/04/04 01:17:45;;;;;;;3.35;1.75;;;3.70;99.90;;;;;;4977204;28;20026;-91
2023/04/04 01:20:19;;;;;;;3.38;1.80;;;3.60;99.90;;;;;;4967210;28;20066;-90
2023/04/04 01:22:48;;;;;;;4.47;1.90;;;3.60;99.90;;;;;;4961616;28;20027;-90
2023/04/04 01:25:15;;;;;;;6.22;2.17;;;3.40;99.90;;;;;;4969208;28;20022;-90
2023/04/04 01:27:41;;;;;;;3.92;1.75;;;3.40;99.90;;;;;;4959329;28;20030;-89
2023/04/04 01:30:10;;;;;;;7.22;2.03;;;3.20;99.90;;;;;;4977198;28;20026;-89
2023/04/04 01:33:10;;;;;;;4.40;2.30;;;3.20;99.90;;;;;;4958793;28;20069;-90
2023/04/04 01:36:02;;;;;;;5.78;1.85;;;3.20;99.90;;;;;;4974624;28;20220;-89
2023/04/04 01:39:02;;;;;;;4.30;2.20;;;3.10;99.90;;;;;;4976084;28;20092;-90
2023/04/04 01:41:32;;;;;;;13.60;2.35;;;3.10;99.90;;;;;;4981076;28;20541;-90
2023/04/04 01:43:58;;;;;;;4.68;2.03;;;3.10;99.90;;;;;;4974072;28;20183;-89
2023/04/04 01:46:24;;;;;;;5.78;2.13;;;3.00;99.90;;;;;;4992754;28;20437;-89
2023/04/04 01:48:50;;;;;;;4.93;2.25;;;3.00;99.90;;;;;;4990534;28;20202;-89
2023/04/04 01:51:17;;;;;;;5.35;3.10;;;3.00;99.90;;;;;;4976641;28;20023;-90
2023/04/04 01:53:42;;;;;;;7.70;2.50;;;3.00;99.90;;;;;;4969136;28;20026;-91
2023/04/04 01:56:08;;;;;;;3.63;2.70;;;3.00;99.90;;;;;;4964844;28;20065;-91
2023/04/04 01:58:36;;;;;;;4.60;2.78;;;2.90;99.90;;;;;;4970975;28;20034;-89
2023/04/04 02:01:02;;;;;;;4.03;3.13;;;2.90;99.90;;;;;;4964047;28;20037;-91
2023/04/04 02:03:27;;;;;;;5.90;2.85;;;2.90;99.90;;;;;;4965251;28;20122;-90
2023/04/04 02:05:53;;;;;;;6.55;2.97;;;2.90;99.90;;;;;;4969235;28;20156;-91
2023/04/04 02:08:19;;;;;;;6.25;3.33;;;2.90;99.90;;;;;;4958775;28;20072;-89
2023/04/04 02:10:44;;;;;;;6.93;3.25;;;3.00;99.90;;;;;;4961216;28;20069;-89
2023/04/04 02:13:11;;;;;;;6.32;3.20;;;2.90;99.90;;;;;;4977582;28;20033;-90
2023/04/04 02:15:36;;;;;;;4.60;2.75;;;2.90;99.90;;;;;;4958936;28;20023;-90
2023/04/04 02:18:02;;;;;;;6.75;3.05;;;2.90;99.90;;;;;;4971809;28;20041;-90
2023/04/04 02:20:28;;;;;;;9.43;2.92;;;3.00;99.90;;;;;;4960814;28;20037;-90
2023/04/04 02:22:56;;;;;;;4.25;2.50;;;3.00;99.90;;;;;;4966093;28;20125;-89
2023/04/04 02:25:24;;;;;;;10.55;2.50;;;2.90;99.90;;;;;;4960632;28;20030;-90
2023/04/04 02:27:49;;;;;;;8.95;3.20;;;2.90;99.90;;;;;;4978653;28;20097;-90
2023/04/04 02:30:16;;;;;;;7.72;3.22;;;2.90;99.90;;;;;;4963645;28;20071;-90
2023/04/04 02:32:42;;;;;;;7.50;2.67;;;2.90;99.90;;;;;;4979642;28;20084;-90
2023/04/04 02:35:07;;;;;;;5.07;2.40;;;2.90;99.90;;;;;;4977221;28;20026;-89
2023/04/04 02:37:33;;;;;;;4.65;2.83;;;2.90;99.90;;;;;;4962394;28;20034;-90
2023/04/04 02:39:59;;;;;;;5.30;2.70;;;2.90;99.90;;;;;;4977333;28;20031;-89
2023/04/04 02:42:25;;;;;;;6.95;3.15;;;2.90;99.90;;;;;;4961117;28;20014;-89
2023/04/04 02:44:50;;;;;;;5.65;2.90;;;2.90;99.90;;;;;;4960304;28;20542;-92
2023/04/04 02:47:16;;;;;;;8.02;2.80;;;2.80;99.90;;;;;;4963323;28;20159;-90
2023/04/04 02:49:42;;;;;;;6.80;3.17;;;2.80;99.90;;;;;;4962287;28;20214;-90
2023/04/04 02:52:07;;;;;;;6.47;3.25;;;2.90;99.90;;;;;;4978961;28;20121;-91
2023/04/04 02:54:33;;;;;;;8.15;3.42;;;2.90;99.90;;;;;;4995250;28;20037;-89
2023/04/04 02:56:59;;;;;;;7.97;3.08;;;2.80;99.90;;;;;;4974734;28;20190;-89
2023/04/04 02:59:25;;;;;;;6.25;2.35;;;2.80;99.90;;;;;;4970784;28;20027;-90
2023/04/04 03:01:52;;;;;;;4.95;2.20;;;2.80;99.90;;;;;;4974038;28;20034;-90
2023/04/04 03:04:18;;;;;;;6.30;2.38;;;2.80;99.90;;;;;;4969175;28;20117;-89
2023/04/04 03:06:45;;;;;;;4.47;2.50;;;2.70;99.90;;;;;;4964499;28;20101;-89
2023/04/04 03:09:11;;;;;;;7.20;3.00;;;2.80;99.90;;;;;;5001619;28;20037;-89
2023/04/04 03:11:36;;;;;;;10.32;2.40;;;2.80;99.90;;;;;;4979772;28;20014;-89
2023/04/04 03:14:02;;;;;;;7.00;2.35;;;2.80;99.90;;;;;;4962764;28;20023;-90
2023/04/04 03:16:28;;;;;;;10.45;2.50;;;2.70;99.90;;;;;;4982586;28;20019;-90
2023/04/04 03:18:57;;;;;;;9.27;3.00;;;2.60;99.90;;;;;;4963478;28;20039;-91
2023/04/04 03:21:22;;;;;;;6.32;3.00;;;2.60;99.90;;;;;;4964109;28;20037;-91
2023/04/04 03:23:48;;;;;;;4.80;2.95;;;2.50;99.90;;;;;;4982416;28;20011;-88
2023/04/04 03:26:14;;;;;;;9.30;3.45;;;2.50;99.90;;;;;;4972504;28;20073;-90
2023/04/04 03:28:39;;;;;;;9.82;2.50;;;2.50;99.90;;;;;;4965637;28;20144;-90
2023/04/04 03:31:07;;;;;;;4.20;2.47;;;2.40;99.90;;;;;;4965040;28;20023;-90
2023/04/04 03:33:39;;;;;;;7.35;2.85;;;2.40;99.90;;;;;;4972161;28;20019;-91
2023/04/04 03:36:12;;;;;;;5.93;3.08;;;2.40;99.90;;;;;;4975067;28;20093;-86
2023/04/04 03:38:37;;;;;;;3.80;2.88;;;2.30;99.90;;;;;;4965233;28;20027;-86
2023/04/04 03:41:04;;;;;;;5.72;2.70;;;2.30;99.90;;;;;;4979797;28;20386;-86
2023/04/04 03:43:31;;;;;;;6.63;2.88;;;2.30;99.90;;;;;;4969023;28;20106;-86
2023/04/04 03:46:06;;;;;;;8.90;2.53;;;2.30;99.90;;;;;;4962048;28;20026;-87
2023/04/04 03:48:33;;;;;;;3.60;2.33;;;2.30;99.90;;;;;;4985218;28;20587;-88
2023/04/04 03:50:59;;;;;;;5.03;2.55;;;2.30;99.90;;;;;;4989338;28;20550;-85
2023/04/04 03:53:25;;;;;;;5.32;2.58;;;2.30;99.90;;;;;;4980707;28;20081;-88
2023/04/04 03:55:55;;;;;;;3.67;2.03;;;2.30;99.90;;;;;;4969449;28;20050;-87
2023/04/04 03:58:21;;;;;;;6.70;2.80;;;2.30;99.90;;;;;;4967508;28;20184;-86
2023/04/04 04:00:48;;;;;;;9.35;2.67;;;2.30;99.90;;;;;;4975160;28;20031;-85
2023/04/04 04:03:13;;;;;;;6.05;2.90;;;2.30;99.90;;;;;;4957489;28;20023;-87
2023/04/04 04:05:40;;;;;;;6.43;2.70;;;2.30;99.90;;;;;;4973839;28;20245;-90
2023/04/04 04:08:06;;;;;;;4.38;2.33;;;2.20;99.90;;;;;;4961946;28;20031;-91
2023/04/04 04:10:33;;;;;;;11.77;2.85;;;2.20;99.90;;;;;;4970904;28;20554;-90
2023/04/04 04:12:58;;;;;;;5.30;2.78;;;2.20;99.90;;;;;;4961036;28;20023;-91
2023/04/04 04:15:24;;;;;;;13.30;2.72;;;2.20;99.90;;;;;;4966940;28;20082;-91
2023/04/04 04:17:50;;;;;;;3.92;2.53;;;2.20;99.90;;;;;;4967686;28;20026;-90
2023/04/04 04:20:16;;;;;;;5.88;2.95;;;2.20;99.90;;;;;;4980948;28;20027;-90
2023/04/04 04:22:50;;;;;;;8.05;2.60;;;2.20;99.90;;;;;;4963447;28;20054;-91
2023/04/04 04:25:16;;;;;;;9.88;2.60;;;2.10;99.90;;;;;;4978447;28;20242;-91
2023/04/04 04:27:44;;;;;;;4.93;2.80;;;2.10;99.90;;;;;;4963511;28;20287;-90
2023/04/04 04:30:13;;;;;;;8.18;2.60;;;2.20;99.90;;;;;;4962659;28;20026;-90
2023/04/04 04:32:41;;;;;;;7.03;2.88;;;2.10;99.90;;;;;;4960071;28;20317;-89
2023/04/04 04:35:07;;;;;;;5.47;3.08;;;2.10;99.90;;;;;;4968850;28;20050;-89
2023/04/04 04:37:33;;;;;;;11.70;2.38;;;2.00;99.90;;;;;;4968446;28;20034;-90
2023/04/04 04:40:02;;;;;;;11.02;2.90;;;2.00;99.90;;;;;;4960843;28;20129;-89
2023/04/04 04:42:28;;;;;;;11.18;2.90;;;1.90;99.90;;;;;;4967128;28;20111;-90
2023/04/04 04:44:53;;;;;;;7.22;3.05;;;1.80;99.90;;;;;;4974819;28;20510;-89
2023/04/04 04:47:19;;;;;;;5.20;2.25;;;1.90;99.90;;;;;;4975339;28;20042;-89
2023/04/04 04:49:48;;;;;;;12.30;3.30;;;1.80;99.90;;;;;;4961880;28;20023;-90
2023/04/04 04:52:14;;;;;;;12.95;2.78;;;1.80;99.90;;;;;;4980437;28;20204;-90
2023/04/04 04:54:40;;;;;;;11.82;3.10;;;1.80;99.90;;;;;;4962899;28;20064;-89
2023/04/04 04:57:06;;;;;;;10.48;2.90;;;1.80;99.90;;;;;;4996186;28;20023;-90
2023/04/04 04:59:31;;;;;;;8.13;2.90;;;1.80;99.90;;;;;;4964771;28;20419;-90
2023/04/04 05:01:57;;;;;;;8.15;4.05;;;1.80;99.90;;;;;;4992780;28;20018;-90
2023/04/04 05:04:28;;;;;;;7.50;3.42;;;1.80;99.90;;;;;;4977742;28;20027;-90
2023/04/04 05:06:56;;;;;;;9.65;5.13;;;1.80;99.90;;;;;;4961644;28;20471;-91
2023/04/04 05:09:22;;;;;;;9.68;5.07;;;1.80;99.90;;;;;;4977064;28;20112;-85
2023/04/04 05:11:48;;;;;;;16.13;4.95;;;1.80;99.90;;;;;;4959713;28;20053;-85
2023/04/04 05:14:14;;;;;;;11.27;4.22;;;1.80;99.90;;;;;;4969552;28;20054;-86
2023/04/04 05:16:40;;;;;;;10.65;4.47;;;1.80;99.90;;;;;;4957885;28;20360;-86
2023/04/04 05:19:08;;;;;;;11.07;4.50;;;1.80;99.90;;;;;;4992737;28;20556;-86
2023/04/04 05:21:33;;;;;;;12.52;4.38;;;1.90;99.90;;;;;;4955126;28;20439;-86
2023/04/04 05:23:59;;;;;;;11.82;4.05;;;1.90;99.90;;;;;;4958881;28;20113;-87
2023/04/04 05:26:25;;;;;;;19.20;4.90;;;1.90;99.90;;;;;;4969669;28;20292;-86
2023/04/04 05:28:50;;;;;;;13.32;4.72;;;1.90;99.90;;;;;;4960065;28;20031;-86
2023/04/04 05:31:16;;;;;;;11.55;4.68;;;1.90;99.90;;;;;;4958457;28;20027;-86
2023/04/04 05:33:42;;;;;;;10.98;5.00;;;2.00;99.90;;;;;;4972478;28;20026;-86
2023/04/04 05:36:07;;;;;;;8.10;4.70;;;2.00;99.90;;;;;;4963116;28;20043;-86
2023/04/04 05:38:33;;;;;;;11.93;4.78;;;2.10;99.90;;;;;;4962925;28;20406;-85
2023/04/04 05:41:01;;;;;;;11.93;4.53;;;2.20;99.90;;;;;;4964172;28;20014;-86
2023/04/04 05:43:28;;;;;;;9.52;3.65;;;2.20;99.90;;;;;;4955387;28;20027;-85
2023/04/04 05:45:53;;;;;;;14.73;4.47;;;2.30;99.90;;;;;;4956518;28;20438;-87
2023/04/04 05:48:19;;;;;;;13.00;4.40;;;2.30;99.90;;;;;;4960427;28;20027;-86
2023/04/04 05:50:46;;;;;;;19.38;4.07;;;2.50;99.90;;;;;;4961458;28;20026;-86
2023/04/04 05:53:11;;;;;;;17.42;6.35;;;2.50;99.90;;;;;;4958463;28;20034;-90
2023/04/04 05:55:37;;;;;;;25.63;8.32;;;2.60;99.90;;;;;;4967907;28;20031;-89
2023/04/04 05:58:07;;;;;;;27.30;7.32;;;2.60;99.90;;;;;;4964055;28;20022;-89
2023/04/04 06:00:33;;;;;;;28.10;8.57;;;2.70;99.90;;;;;;4976427;28;20394;-89
2023/04/04 06:02:58;;;;;;;16.30;6.10;;;2.80;99.90;;;;;;4967017;28;20026;-89
2023/04/04 06:05:27;;;;;;;21.90;5.13;;;2.90;99.90;;;;;;4964924;28;20033;-89
2023/04/04 06:07:52;;;;;;;12.43;3.80;;;2.90;99.90;;;;;;4966338;28;20042;-89
2023/04/04 06:10:18;;;;;;;19.48;4.32;;;3.10;99.90;;;;;;4971411;28;20092;-89
2023/04/04 06:12:43;;;;;;;24.48;3.72;;;3.10;99.90;;;;;;4964358;28;20058;-89
2023/04/04 06:15:09;;;;;;;24.27;3.95;;;3.10;99.90;;;;;;4977124;28;20026;-88
2023/04/04 06:17:35;;;;;;;10.25;3.70;;;3.20;99.90;;;;;;4982540;28;20361;-89
2023/04/04 06:20:00;;;;;;;9.45;2.80;;;3.30;99.90;;;;;;4959231;28;20328;-89
2023/04/04 06:22:26;;;;;;;18.30;3.65;;;3.40;99.90;;;;;;4972842;28;20532;-89
2023/04/04 06:24:52;;;;;;;39.70;4.35;;;3.50;99.90;;;;;;4957931;28;20015;-88
2023/04/04 06:27:17;;;;;;;14.20;3.33;;;3.70;99.90;;;;;;4957392;28;20060;-89
2023/04/04 06:29:45;;;;;;;13.07;3.58;;;3.70;99.90;;;;;;4991231;28;20092;-90
2023/04/04 06:32:11;;;;;;;13.85;3.42;;;3.80;99.90;;;;;;4963299;28;20056;-89
2023/04/04 06:34:37;;;;;;;8.02;3.47;;;3.90;99.90;;;;;;4976899;28;20113;-90
2023/04/04 06:37:02;;;;;;;11.27;4.28;;;4.00;99.90;;;;;;4966958;28;20105;-89
2023/04/04 06:39:30;;;;;;;6.55;2.58;;;4.00;99.90;;;;;;4961045;28;20967;-89
2023/04/04 06:41:58;;;;;;;12.35;3.33;;;4.20;99.90;;;;;;4976067;28;20491;-89
2023/04/04 06:44:23;;;;;;;4.93;2.67;;;4.20;99.90;;;;;;4968131;28;20041;-89
2023/04/04 06:46:50;;;;;;;6.45;3.10;;;4.30;99.90;;;;;;4958273;28;20150;-89
2023/04/04 06:49:15;;;;;;;8.75;3.10;;;4.50;99.90;;;;;;4961823;28;20027;-89
2023/04/04 06:51:41;;;;;;;10.80;3.42;;;4.60;99.90;;;;;;4964138;28;20535;-90
2023/04/04 06:54:07;;;;;;;7.32;2.65;;;4.60;99.90;;;;;;4960499;28;20037;-91
2023/04/04 06:56:33;;;;;;;7.53;3.03;;;4.70;99.90;;;;;;4974786;28;20557;-89
2023/04/04 06:58:58;;;;;;;5.47;3.05;;;4.80;99.90;;;;;;4967018;28;20023;-88
2023/04/04 07:01:26;;;;;;;7.63;3.17;;;4.90;99.90;;;;;;4958080;28;20050;-90
2023/04/04 07:03:55;;;;;;;5.13;2.97;;;5.00;99.90;;;;;;4976050;28;20033;-90
2023/04/04 07:06:22;;;;;;;15.55;3.03;;;5.10;99.90;;;;;;4956655;28;20470;-90
2023/04/04 07:08:48;;;;;;;7.97;2.88;;;5.10;99.90;;;;;;4967653;28;20035;-90
2023/04/04 07:11:14;;;;;;;5.82;2.80;;;5.10;99.90;;;;;;4962401;28;20037;-90
2023/04/04 07:13:42;;;;;;;7.57;3.33;;;5.10;99.90;;;;;;4960855;28;20022;-91
2023/04/04 07:16:07;;;;;;;8.98;3.10;;;5.20;99.90;;;;;;4994796;28;20090;-89
2023/04/04 07:18:33;;;;;;;5.45;2.67;;;5.30;99.90;;;;;;4959793;28;20114;-89
2023/04/04 07:20:59;;;;;;;9.20;3.78;;;5.40;99.90;;;;;;4964832;28;20121;-82
2023/04/04 07:23:26;;;;;;;9.70;3.25;;;5.50;99.90;;;;;;4957316;28;20097;-83
2023/04/04 07:25:53;;;;;;;10.90;3.55;;;5.60;99.90;;;;;;4973555;28;20023;-88
2023/04/04 07:28:19;;;;;;;7.43;3.13;;;5.80;99.90;;;;;;4980628;28;20090;-89
2023/04/04 07:30:45;;;;;;;7.78;2.88;;;5.90;99.90;;;;;;4967382;28;20047;-89
2023/04/04 07:33:13;;;;;;;5.80;2.92;;;6.00;99.90;;;;;;4995326;28;20023;-83
2023/04/04 07:35:38;;;;;;;10.50;3.58;;;6.10;99.90;;;;;;4955421;28;20033;-83
2023/04/04 07:38:04;;;;;;;9.93;3.03;;;6.20;99.90;;;;;;4961485;28;20121;-90
2023/04/04 07:40:30;;;;;;;4.10;2.67;;;6.40;99.90;;;;;;4976905;28;20037;-87
2023/04/04 07:42:56;;;;;;;7.68;2.97;;;6.50;99.90;;;;;;4963484;28;20035;-89
2023/04/04 07:45:22;;;;;;;8.52;2.85;;;6.40;99.90;;;;;;4978131;28;20538;-90
2023/04/04 07:47:47;;;;;;;5.90;2.72;;;6.40;99.90;;;;;;4980657;28;20023;-90
2023/04/04 07:50:14;;;;;;;4.55;2.75;;;6.50;99.70;;;;;;4970271;28;20022;-89
2023/04/04 07:52:41;;;;;;;5.47;2.70;;;6.60;99.90;;;;;;4966712;28;20022;-90
2023/04/04 07:55:07;;;;;;;6.28;2.08;;;6.70;99.90;;;;;;4961232;28;20473;-81
2023/04/04 07:57:40;;;;;;;7.57;2.30;;;6.70;99.80;;;;;;4971712;28;20033;-92
2023/04/04 08:00:08;;;;;;;8.50;2.83;;;6.90;99.90;;;;;;4977679;28;20490;-91
2023/04/04 08:02:35;;;;;;;8.95;2.30;;;7.00;99.20;;;;;;4968702;28;20037;-90
2023/04/04 08:05:06;;;;;;;4.47;2.05;;;7.20;98.50;;;;;;4968814;28;20057;-89
2023/04/04 08:07:32;;;;;;;10.82;2.35;;;7.30;97.40;;;;;;4969771;28;20468;-90
2023/04/04 08:09:58;;;;;;;11.60;3.83;;;7.40;97.30;;;;;;4976230;28;20015;-89
2023/04/04 08:12:23;;;;;;;4.43;1.95;;;7.50;97.00;;;;;;4995989;28;20026;-91
2023/04/04 08:14:49;;;;;;;5.75;2.58;;;7.60;96.80;;;;;;4968590;28;20046;-90
2023/04/04 08:17:17;;;;;;;5.78;2.30;;;7.80;96.30;;;;;;4984773;28;20410;-90
2023/04/04 08:19:43;;;;;;;7.90;2.80;;;8.00;95.90;;;;;;4964928;28;20225;-90
2023/04/04 08:22:09;;;;;;;7.05;2.20;;;8.10;95.10;;;;;;4961898;28;20019;-90
2023/04/04 08:24:35;;;;;;;10.18;2.78;;;8.30;95.20;;;;;;4964834;28;20562;-91
2023/04/04 08:27:01;;;;;;;7.07;2.20;;;8.40;94.90;;;;;;4996430;28;20054;-89
2023/04/04 08:29:27;;;;;;;4.32;2.38;;;8.60;92.80;;;;;;4984150;28;20053;-89
2023/04/04 08:31:53;;;;;;;5.05;2.08;;;8.80;92.40;;;;;;4985376;28;20026;-90
2023/04/04 08:34:19;;;;;;;2.70;1.50;;;9.10;92.30;;;;;;4972106;28;20054;-90
2023/04/04 08:36:45;;;;;;;3.80;1.67;;;9.20;85.90;;;;;;4984466;28;20026;-90
2023/04/04 08:39:12;;;;;;;3.42;1.95;;;9.30;85.30;;;;;;4984178;28;20040;-90
2023/04/04 08:41:42;;;;;;;3.40;1.83;;;9.60;86.20;;;;;;4984580;28;20034;-88
2023/04/04 08:44:10;;;;;;;3.65;2.17;;;9.90;83.80;;;;;;4972123;28;20030;-89
2023/04/04 08:46:37;;;;;;;5.20;1.80;;;10.00;82.80;;;;;;4990701;28;20622;-90
2023/04/04 08:49:03;;;;;;;4.63;2.05;;;10.20;79.70;;;;;;4974003;28;20104;-89
2023/04/04 08:51:31;;;;;;;3.17;1.92;;;10.40;79.50;;;;;;4971321;28;20031;-90
2023/04/04 08:53:58;;;;;;;4.00;2.20;;;10.50;79.50;;;;;;4964477;28;20026;-91
2023/04/04 08:56:27;;;;;;;5.78;2.00;;;10.70;78.90;;;;;;4971145;28;20022;-91
2023/04/04 08:58:53;;;;;;;3.78;1.67;;;10.90;77.30;;;;;;4965548;28;20077;-91
2023/04/04 09:01:19;;;;;;;4.60;1.92;;;11.10;77.60;;;;;;4967573;28;20035;-91
2023/04/04 09:03:46;;;;;;;5.30;1.92;;;11.30;74.30;;;;;;4960993;28;20097;-90
2023/04/04 09:06:12;;;;;;;7.50;1.80;;;11.50;72.30;;;;;;4960446;28;20023;-92
2023/04/04 09:08:38;;;;;;;2.88;1.90;;;11.70;70.20;;;;;;4965580;28;20040;-92
2023/04/04 09:11:05;;;;;;;5.38;1.60;;;11.50;68.10;;;;;;4971539;28;20022;-90
2023/04/04 09:13:31;;;;;;;2.38;1.50;;;11.70;70.70;;;;;;4969087;28;20050;-92
2023/04/04 09:15:59;;;;;;;7.82;2.42;;;12.00;68.90;;;;;;4965117;28;20530;-89
2023/04/04 09:18:24;;;;;;;2.67;1.88;;;12.10;66.50;;;;;;4996351;28;20038;-91
2023/04/04 09:20:51;;;;;;;1.80;1.38;;;12.30;65.30;;;;;;4982832;28;20038;-90
2023/04/04 09:23:19;;;;;;;2.53;1.52;;;12.60;66.30;;;;;;4967884;28;20085;-90
2023/04/04 09:25:57;;;;;;;8.25;1.90;;;12.80;63.60;;;;;;4969073;28;20050;-91
2023/04/04 09:28:23;;;;;;;3.65;1.75;;;12.90;63.30;;;;;;4997414;28;20271;-91
2023/04/04 09:30:51;;;;;;;5.63;1.83;;;13.10;61.90;;;;;;4970570;28;20026;-93
2023/04/04 09:33:20;;;;;;;6.15;1.67;;;13.40;63.20;;;;;;4962159;28;20146;-90
2023/04/04 09:35:53;;;;;;;9.65;1.90;;;13.60;60.10;;;;;;4962994;28;20113;-91
2023/04/04 09:38:22;;;;;;;3.35;1.73;;;13.70;59.10;;;;;;4961559;28;20049;-91
2023/04/04 09:40:48;;;;;;;5.93;1.77;;;13.90;60.80;;;;;;4977578;28;20426;-93
2023/04/04 09:43:14;;;;;;;11.90;2.22;;;14.40;59.20;;;;;;4986257;28;20113;-91
2023/04/04 09:45:43;;;;;;;5.75;1.60;;;14.80;59.40;;;;;;4974038;28;20113;-87
2023/04/04 09:48:09;;;;;;;2.75;1.90;;;15.20;59.30;;;;;;4979509;28;20037;-90
2023/04/04 09:50:36;;;;;;;2.90;1.60;;;15.90;56.30;;;;;;4983372;28;20034;-91
2023/04/04 09:53:02;;;;;;;3.60;1.90;;;16.20;55.20;;;;;;4974519;28;20030;-91
2023/04/04 09:55:38;;;;;;;4.15;1.60;;;16.40;55.70;;;;;;4977851;28;20026;-90
2023/04/04 09:58:18;;;;;;;4.68;1.83;;;16.80;53.30;;;;;;4988745;28;20026;-88
2023/04/04 10:00:47;;;;;;;7.43;1.92;;;16.30;52.70;;;;;;4981428;28;20023;-87
2023/04/04 10:03:19;;;;;;;4.82;1.90;;;16.00;53.20;;;;;;4976027;28;20591;-83
2023/04/04 10:05:45;;;;;;;7.88;2.13;;;15.80;53.00;;;;;;4974672;28;20084;-83
2023/04/04 10:08:20;;;;;;;5.10;1.50;;;15.40;52.60;;;;;;4980594;28;20431;-90
2023/04/04 10:10:57;;;;;;;5.60;2.40;;;15.40;53.20;;;;;;4977206;28;20027;-89
2023/04/04 10:13:27;;;;;;;4.05;1.80;;;15.60;52.30;;;;;;4983204;28;20061;-89
2023/04/04 10:15:59;;;;;;;3.88;1.50;;;15.60;50.40;;;;;;4978970;28;20031;-89
2023/04/04 10:18:27;;;;;;;7.78;2.20;;;15.60;51.20;;;;;;4978757;28;20031;-91
2023/04/04 10:20:55;;;;;;;321.08;123.93;;;15.60;51.60;;;;;;4976523;28;20145;-85
2023/04/04 10:23:23;;;;;;;6.40;2.95;;;15.80;52.00;;;;;;4977219;28;20507;-88
2023/04/04 10:25:50;;;;;;;3.45;2.10;;;15.80;50.20;;;;;;4981491;28;20050;-89
2023/04/04 10:28:17;;;;;;;6.22;2.08;;;15.80;51.10;;;;;;4979918;28;20589;-89
2023/04/04 10:30:55;;;;;;;3.88;2.00;;;15.80;50.30;;;;;;4980864;28;21384;-89
2023/04/04 10:33:41;;;;;;;3.50;2.00;;;15.40;51.20;;;;;;4974711;28;20514;-88
2023/04/04 10:36:09;;;;;;;4.05;2.63;;;15.10;50.00;;;;;;4972027;28;20026;-88
2023/04/04 10:38:42;;;;;;;3.47;1.73;;;15.10;50.40;;;;;;4978259;28;20026;-89
2023/04/04 10:41:08;;;;;;;3.72;1.73;;;15.10;50.90;;;;;;4982895;28;20069;-88
2023/04/04 10:43:39;;;;;;;3.53;2.00;;;15.30;51.00;;;;;;4978472;28;20505;-90
2023/04/04 10:46:11;;;;;;;2.88;1.83;;;15.70;49.80;;;;;;4976090;28;20026;-89
2023/04/04 10:48:38;;;;;;;4.22;1.60;;;15.80;49.50;;;;;;4973089;28;20030;-89
2023/04/04 10:51:05;;;;;;;5.95;1.90;;;15.80;49.50;;;;;;4978017;28;20027;-89
2023/04/04 10:53:32;;;;;;;6.57;2.03;;;15.60;48.70;;;;;;4979315;28;20058;-90
2023/04/04 10:56:00;;;;;;;4.10;2.03;;;15.50;50.00;;;;;;4979992;28;20067;-89
2023/04/04 10:58:27;;;;;;;5.88;2.33;;;15.60;51.80;;;;;;4974003;28;20073;-88
2023/04/04 11:00:54;;;;;;;6.57;2.22;;;15.90;49.70;;;;;;4982162;28;20157;-88
2023/04/04 11:03:21;;;;;;;7.65;1.85;;;16.40;48.50;;;;;;4969150;28;20459;-89
2023/04/04 11:05:48;;;;;;;3.15;1.98;;;16.50;48.80;;;;;;4979595;28;20026;-88
2023/04/04 11:08:18;;;;;;;5.65;2.45;;;16.50;49.00;;;;;;4967874;28;20037;-84
2023/04/04 11:10:47;;;;;;;5.18;3.00;;;17.00;48.40;;;;;;4983924;28;20034;-89
2023/04/04 11:13:22;;;;;;;6.35;2.40;;;17.40;48.00;;;;;;4995611;28;20379;-91
2023/04/04 11:15:58;;;;;;;4.93;1.75;;;17.40;47.20;;;;;;4980800;28;20050;-90
2023/04/04 11:18:40;;;;;;;3.85;1.48;;;17.30;48.90;;;;;;4982600;28;20030;-89
2023/04/04 11:21:07;;;;;;;4.68;2.20;;;17.30;46.50;;;;;;4983566;28;20101;-88
2023/04/04 11:23:48;;;;;;;3.35;1.60;;;17.10;45.30;;;;;;4987426;28;20552;-89
2023/04/04 11:26:40;;;;;;;3.45;1.83;;;16.80;45.60;;;;;;4982719;28;20057;-89
2023/04/04 11:29:13;;;;;;;8.45;2.05;;;16.90;46.00;;;;;;4977662;28;20035;-89
2023/04/04 11:31:50;;;;;;;3.83;2.05;;;16.70;47.10;;;;;;4983690;28;20026;-89
2023/04/04 11:34:30;;;;;;;7.88;2.45;;;16.40;47.00;;;;;;4984114;28;20042;-90
2023/04/04 11:36:56;;;;;;;2.55;1.65;;;16.20;47.00;;;;;;4989966;28;20025;-88
2023/04/04 11:39:32;;;;;;;4.50;2.30;;;16.10;47.00;;;;;;4985594;28;20117;-82
2023/04/04 11:42:13;;;;;;;7.05;2.45;;;16.10;47.50;;;;;;4982993;28;20026;-83
2023/04/04 11:45:01;;;;;;;2.80;1.60;;;16.10;45.80;;;;;;4975762;28;20051;-87
2023/04/04 11:47:29;;;;;;;2.28;1.40;;;16.10;46.20;;;;;;4970078;28;20368;-86
2023/04/04 11:49:59;;;;;;;8.48;2.15;;;16.50;45.70;;;;;;4981222;28;20085;-86
2023/04/04 11:52:24;;;;;;;2.08;1.30;;;16.40;46.50;;;;;;4984111;28;20031;-88
2023/04/04 11:54:51;;;;;;;6.50;2.47;;;16.30;46.60;;;;;;4989923;28;20062;-87
2023/04/04 11:57:18;;;;;;;4.65;1.75;;;16.40;47.20;;;;;;4999220;28;20110;-87
2023/04/04 11:59:46;;;;;;;5.30;1.58;;;16.70;47.10;;;;;;5004002;28;20655;-87
2023/04/04 12:02:14;;;;;;;5.80;2.03;;;16.80;47.80;;;;;;5006453;28;20019;-88
2023/04/04 12:04:43;;;;;;;5.20;2.25;;;16.70;46.80;;;;;;4993436;28;20057;-87
2023/04/04 12:07:09;;;;;;;5.60;2.15;;;16.80;45.10;;;;;;4986866;28;20245;-87
2023/04/04 12:09:35;;;;;;;4.78;2.20;;;17.30;45.40;;;;;;4977261;28;20054;-87
2023/04/04 12:12:04;;;;;;;3.42;1.80;;;17.10;44.90;;;;;;4978476;28;20026;-87
2023/04/04 12:14:31;;;;;;;2.42;2.00;;;17.20;46.50;;;;;;4978613;28;20031;-87
2023/04/04 12:16:58;;;;;;;4.28;1.85;;;17.10;45.70;;;;;;4981266;28;20084;-87
2023/04/04 12:19:27;;;;;;;3.20;1.80;;;16.80;44.20;;;;;;4975768;28;20026;-87
2023/04/04 12:21:56;;;;;;;2.55;1.90;;;17.30;45.90;;;;;;4982354;28;20121;-86
2023/04/04 12:24:21;;;;;;;3.20;1.95;;;17.50;44.80;;;;;;4975979;28;20019;-87
2023/04/04 12:26:50;;;;;;;4.78;2.08;;;17.50;43.00;;;;;;4976320;28;20458;-87
2023/04/04 12:29:17;;;;;;;2.88;1.83;;;17.70;44.30;;;;;;4978957;28;20066;-87
2023/04/04 12:31:45;;;;;;;6.00;2.50;;;17.50;43.70;;;;;;4992082;28;20047;-88
2023/04/04 12:34:28;;;;;;;4.53;2.20;;;17.50;45.10;;;;;;4978390;28;20037;-88
2023/04/04 12:36:55;;;;;;;5.20;2.03;;;17.30;44.70;;;;;;4978262;28;20502;-87
2023/04/04 12:39:24;;;;;;;5.18;2.42;;;17.20;45.40;;;;;;4982637;28;20073;-87
2023/04/04 12:41:57;;;;;;;6.70;2.72;;;17.10;43.90;;;;;;4997555;28;20029;-88
2023/04/04 12:44:30;;;;;;;5.50;2.30;;;17.30;45.20;;;;;;4981799;28;20023;-87
2023/04/04 12:46:59;;;;;;;;;;;17.30;43.90;;;;;;4978755;28;20049;-87
2023/04/04 12:49:38;;;;;;;5.68;2.60;;;17.40;44.20;;;;;;4985471;28;19929;-88
2023/04/04 12:52:15;;;;;;;7.38;2.22;;;17.50;44.20;;;;;;4984160;28;20117;-87
2023/04/04 12:54:41;;;;;;;4.57;2.03;;;18.00;42.60;;;;;;4983302;28;20030;-87
2023/04/04 12:57:07;;;;;;;5.47;2.17;;;18.10;42.40;;;;;;4984201;28;20047;-89